createdAt,value
2022-10-19T00:01:33.206Z,20.02
2022-10-19T00:04:02.489Z,20.01
2022-10-19T00:06:33.140Z,20.02
2022-10-19T00:09:01.496Z,20.01
2022-10-19T00:11:29.275Z,20.01
2022-10-19T00:13:56.987Z,20.01
2022-10-19T00:16:24.649Z,20.01
2022-10-19T00:18:53.540Z,20.00
2022-10-19T00:21:21.086Z,19.99
2022-10-19T00:23:49.379Z,20.00
2022-10-19T00:26:16.987Z,19.99
2022-10-19T00:28:44.857Z,19.99
2022-10-19T00:31:13.418Z,19.99
2022-10-19T00:33:41.187Z,19.98
2022-10-19T00:36:16.140Z,19.98
2022-10-19T00:38:43.799Z,19.98
2022-10-19T00:41:11.435Z,19.98
2022-10-19T00:43:51.944Z,19.98
2022-10-19T00:46:19.479Z,19.98
2022-10-19T00:48:47.011Z,19.96
2022-10-19T00:51:15.945Z,19.98
2022-10-19T00:53:43.505Z,19.96
2022-10-19T00:56:12.614Z,19.96
2022-10-19T00:58:40.256Z,19.97
2022-10-19T01:01:07.819Z,19.96
2022-10-19T01:03:35.389Z,19.96
2022-10-19T01:06:02.924Z,19.96
2022-10-19T01:08:31.871Z,19.95
2022-10-19T01:11:04.089Z,19.96
2022-10-19T01:13:36.788Z,19.96
2022-10-19T01:16:05.595Z,19.95
2022-10-19T01:18:37.163Z,19.95
2022-10-19T01:21:13.728Z,19.96
2022-10-19T01:23:56.837Z,19.95
2022-10-19T01:26:38.373Z,19.95
2022-10-19T01:29:09.506Z,19.95
2022-10-19T01:31:39.225Z,19.94
2022-10-19T01:34:09.697Z,19.93
2022-10-19T01:36:41.665Z,19.93
2022-10-19T01:39:11.395Z,19.94
2022-10-19T01:41:44.264Z,19.92
2022-10-19T01:44:14.828Z,19.92
2022-10-19T01:46:44.785Z,19.93
2022-10-19T01:49:14.651Z,19.91
2022-10-19T01:51:43.647Z,19.91
2022-10-19T01:54:12.776Z,19.92
2022-10-19T01:56:42.055Z,19.91
2022-10-19T01:59:09.899Z,19.91
2022-10-19T02:01:39.376Z,19.90
2022-10-19T02:04:08.490Z,19.91
2022-10-19T02:06:36.241Z,19.90
2022-10-19T02:09:17.929Z,19.91
2022-10-19T02:11:49.043Z,19.90
2022-10-19T02:14:18.681Z,19.90
2022-10-19T02:16:47.784Z,19.88
2022-10-19T02:19:16.836Z,19.88
2022-10-19T02:21:44.633Z,19.89
2022-10-19T02:24:12.219Z,19.88
2022-10-19T02:26:39.891Z,19.88
2022-10-19T02:29:07.416Z,19.87
2022-10-19T02:31:34.936Z,19.89
2022-10-19T02:34:02.483Z,19.88
2022-10-19T02:36:31.368Z,19.87
2022-10-19T02:38:58.918Z,19.87
2022-10-19T02:41:28.693Z,19.88
2022-10-19T02:43:58.477Z,19.87
2022-10-19T02:46:28.291Z,19.87
2022-10-19T02:48:55.828Z,19.86
2022-10-19T02:51:32.209Z,19.86
2022-10-19T02:54:02.629Z,19.86
2022-10-19T02:56:32.684Z,19.86
2022-10-19T02:59:00.220Z,19.86
2022-10-19T03:01:27.780Z,19.86
2022-10-19T03:03:55.304Z,19.86
2022-10-19T03:06:22.851Z,19.85
2022-10-19T03:08:51.804Z,19.85
2022-10-19T03:11:19.479Z,19.85
2022-10-19T03:16:15.500Z,19.84
2022-10-19T03:18:43.075Z,19.85
2022-10-19T03:21:11.515Z,19.85
2022-10-19T03:23:39.325Z,19.85
2022-10-19T03:26:11.390Z,19.85
2022-10-19T03:28:40.026Z,19.83
2022-10-19T03:31:07.624Z,19.84
2022-10-19T03:33:35.173Z,19.83
2022-10-19T03:36:20.928Z,19.83
2022-10-19T03:38:48.677Z,19.84
2022-10-19T03:41:17.678Z,19.83
2022-10-19T03:43:45.209Z,19.84
2022-10-19T03:46:12.782Z,19.83
2022-10-19T03:48:40.464Z,19.82
2022-10-19T03:51:09.134Z,19.83
2022-10-19T03:53:36.746Z,19.82
2022-10-19T03:56:05.731Z,19.83
2022-10-19T03:58:35.942Z,19.83
2022-10-19T04:01:03.789Z,19.82
2022-10-19T04:03:31.518Z,19.82
2022-10-19T04:06:03.596Z,19.81
2022-10-19T04:08:31.133Z,19.82
2022-10-19T04:11:02.325Z,19.81
2022-10-19T04:13:29.920Z,19.81
2022-10-19T04:15:58.888Z,19.80
2022-10-19T04:18:26.426Z,19.80
2022-10-19T04:20:57.732Z,19.81
2022-10-19T04:23:25.426Z,19.82
2022-10-19T04:25:52.989Z,19.82
2022-10-19T04:28:20.699Z,19.82
2022-10-19T04:30:48.305Z,19.81
2022-10-19T04:33:17.192Z,19.81
2022-10-19T04:35:44.720Z,19.81
2022-10-19T04:38:12.250Z,19.83
2022-10-19T04:40:39.837Z,19.82
2022-10-19T04:43:07.350Z,19.82
2022-10-19T04:45:36.114Z,19.81
2022-10-19T04:48:03.700Z,19.82
2022-10-19T04:50:32.585Z,19.82
2022-10-19T04:53:00.147Z,19.81
2022-10-19T04:55:27.712Z,19.80
2022-10-19T04:57:55.267Z,19.80
2022-10-19T05:00:22.817Z,19.80
2022-10-19T05:02:50.419Z,19.80
2022-10-19T05:05:17.964Z,19.80
2022-10-19T05:07:46.857Z,19.80
2022-10-19T05:10:14.756Z,19.79
2022-10-19T05:12:42.289Z,19.79
2022-10-19T05:15:10.833Z,19.79
2022-10-19T05:17:38.340Z,19.80
2022-10-19T05:20:06.983Z,19.80
2022-10-19T05:22:34.530Z,19.79
2022-10-19T05:25:03.394Z,19.79
2022-10-19T05:27:31.028Z,19.78
2022-10-19T05:29:58.644Z,19.79
2022-10-19T05:32:26.221Z,19.78
2022-10-19T05:34:53.860Z,19.78
2022-10-19T05:37:21.612Z,19.78
2022-10-19T05:39:49.149Z,19.77
2022-10-19T05:42:18.044Z,19.78
2022-10-19T05:44:45.582Z,19.77
2022-10-19T05:47:13.145Z,19.77
2022-10-19T05:49:40.764Z,19.77
2022-10-19T05:52:08.294Z,19.77
2022-10-19T05:54:36.381Z,19.76
2022-10-19T05:57:03.977Z,19.77
2022-10-19T05:59:33.075Z,19.75
2022-10-19T06:02:00.660Z,19.76
2022-10-19T06:04:28.368Z,19.74
2022-10-19T06:06:55.902Z,19.74
2022-10-19T06:09:23.456Z,19.74
2022-10-19T06:11:51.001Z,19.74
2022-10-19T06:14:18.633Z,19.74
2022-10-19T06:16:47.497Z,19.73
2022-10-19T06:19:15.053Z,19.74
2022-10-19T06:21:45.654Z,19.74
2022-10-19T06:24:13.851Z,19.75
2022-10-19T06:26:41.648Z,19.74
2022-10-19T06:29:09.240Z,19.74
2022-10-19T06:31:37.229Z,19.73
2022-10-19T06:34:06.204Z,19.73
2022-10-19T06:36:33.942Z,19.73
2022-10-19T06:39:01.778Z,19.73
2022-10-19T06:41:29.677Z,19.73
2022-10-19T06:43:57.321Z,19.74
2022-10-19T06:46:25.974Z,19.73
2022-10-19T06:48:54.244Z,19.74
2022-10-19T06:51:23.414Z,19.74
2022-10-19T06:53:52.958Z,19.74
2022-10-19T06:56:24.964Z,19.76
2022-10-19T06:58:52.578Z,19.74
2022-10-19T07:01:20.300Z,19.76
2022-10-19T07:03:47.913Z,19.75
2022-10-19T07:06:15.466Z,19.74
2022-10-19T07:08:44.571Z,19.74
2022-10-19T07:11:12.991Z,19.74
2022-10-19T07:13:40.579Z,19.74
2022-10-19T07:16:14.534Z,19.74
2022-10-19T07:18:45.353Z,19.76
2022-10-19T07:21:14.032Z,19.75
2022-10-19T07:23:42.437Z,19.73
2022-10-19T07:26:12.945Z,19.74
2022-10-19T07:28:40.966Z,19.74
2022-10-19T07:31:08.964Z,19.73
2022-10-19T07:33:36.610Z,19.73
2022-10-19T07:36:05.394Z,19.51
2022-10-19T07:38:33.186Z,19.20
2022-10-19T07:41:02.133Z,19.06
2022-10-19T07:43:31.057Z,19.19
2022-10-19T07:45:59.689Z,19.30
2022-10-19T07:48:27.254Z,19.41
2022-10-19T07:50:54.849Z,19.47
2022-10-19T07:53:22.491Z,19.51
2022-10-19T07:55:50.054Z,19.54
2022-10-19T07:58:17.618Z,19.56
2022-10-19T08:00:46.604Z,19.57
2022-10-19T08:06:02.061Z,19.60
2022-10-19T08:08:29.778Z,19.59
2022-10-19T08:10:57.402Z,19.61
2022-10-19T08:13:25.112Z,19.62
2022-10-19T08:15:54.082Z,19.61
2022-10-19T08:18:23.014Z,19.63
2022-10-19T08:20:50.912Z,19.63
2022-10-19T08:23:18.477Z,19.63
2022-10-19T08:25:46.026Z,19.63
2022-10-19T08:28:13.657Z,19.64
2022-10-19T08:30:41.285Z,19.63
2022-10-19T08:33:12.392Z,19.64
2022-10-19T08:35:39.954Z,19.65
2022-10-19T08:38:07.520Z,19.64
2022-10-19T08:40:35.140Z,19.64
2022-10-19T08:43:05.403Z,19.64
2022-10-19T08:45:38.830Z,19.65
2022-10-19T08:48:26.551Z,19.65
2022-10-19T08:50:54.329Z,19.66
2022-10-19T08:53:24.975Z,19.66
2022-10-19T08:56:03.693Z,19.66
2022-10-19T08:58:46.322Z,19.66
2022-10-19T09:01:16.329Z,19.67
2022-10-19T09:03:56.132Z,19.69
2022-10-19T09:06:25.346Z,19.69
2022-10-19T09:08:54.005Z,19.69
2022-10-19T09:11:23.529Z,19.69
2022-10-19T09:14:04.767Z,19.69
2022-10-19T09:16:32.853Z,19.69
2022-10-19T09:19:01.738Z,19.69
2022-10-19T09:21:37.989Z,19.69
2022-10-19T09:24:20.685Z,19.70
2022-10-19T09:26:50.959Z,19.72
2022-10-19T09:29:22.769Z,19.73
2022-10-19T09:31:50.406Z,19.73
2022-10-19T09:34:22.322Z,19.73
2022-10-19T09:36:52.467Z,19.75
2022-10-19T09:39:20.141Z,19.74
2022-10-19T09:41:48.053Z,19.75
2022-10-19T09:44:15.593Z,19.76
2022-10-19T09:46:48.357Z,19.77
2022-10-19T09:49:15.954Z,19.77
2022-10-19T09:51:51.586Z,19.79
2022-10-19T09:54:26.746Z,19.80
2022-10-19T09:56:55.056Z,19.80
2022-10-19T09:59:23.969Z,19.81
2022-10-19T10:04:30.136Z,19.81
2022-10-19T10:06:59.103Z,19.81
2022-10-19T10:09:28.726Z,19.82
2022-10-19T10:11:58.281Z,19.82
2022-10-19T10:14:28.031Z,19.82
2022-10-19T10:16:56.256Z,19.81
2022-10-19T10:19:27.363Z,19.82
2022-10-19T10:21:55.666Z,19.82
2022-10-19T10:24:25.260Z,19.82
2022-10-19T10:26:53.952Z,19.82
2022-10-19T10:29:22.385Z,19.81
2022-10-19T10:31:50.780Z,19.81
2022-10-19T10:34:28.310Z,19.81
2022-10-19T10:36:57.972Z,19.82
2022-10-19T10:39:27.062Z,19.81
2022-10-19T10:41:54.627Z,19.81
2022-10-19T10:44:24.036Z,19.81
2022-10-19T10:46:53.051Z,19.81
2022-10-19T10:49:22.500Z,19.80
2022-10-19T10:52:11.605Z,19.80
2022-10-19T10:54:40.665Z,19.80
2022-10-19T10:57:16.677Z,19.80
2022-10-19T10:59:52.930Z,19.80
2022-10-19T11:02:27.493Z,19.80
2022-10-19T11:04:56.725Z,19.81
2022-10-19T11:07:25.256Z,19.80
2022-10-19T11:09:55.519Z,19.81
2022-10-19T11:12:35.238Z,19.81
2022-10-19T11:15:07.168Z,19.81
2022-10-19T11:17:35.581Z,19.81
2022-10-19T11:20:03.418Z,19.80
2022-10-19T11:22:33.061Z,19.79
2022-10-19T11:25:11.184Z,19.80
2022-10-19T11:27:44.266Z,19.80
2022-10-19T11:30:12.852Z,19.79
2022-10-19T11:32:59.493Z,19.79
2022-10-19T11:35:34.569Z,19.78
2022-10-19T11:38:20.215Z,19.79
2022-10-19T11:41:13.129Z,19.78
2022-10-19T11:43:43.323Z,19.78
2022-10-19T11:46:13.569Z,19.77
2022-10-19T11:48:54.756Z,19.78
2022-10-19T11:51:23.366Z,19.78
2022-10-19T11:53:58.430Z,19.77
2022-10-19T11:56:39.113Z,19.78
2022-10-19T11:59:22.681Z,19.78
2022-10-19T12:01:55.768Z,19.77
2022-10-19T12:04:31.239Z,19.77
2022-10-19T12:07:02.816Z,19.77
2022-10-19T12:09:36.838Z,19.77
2022-10-19T12:12:23.125Z,19.77
2022-10-19T12:14:52.618Z,19.78
2022-10-19T12:17:23.071Z,19.78
2022-10-19T12:19:53.200Z,19.79
2022-10-19T12:22:23.001Z,19.79
2022-10-19T12:24:51.245Z,19.80
2022-10-19T12:27:24.350Z,19.80
2022-10-19T12:29:52.209Z,19.80
2022-10-19T12:32:20.391Z,19.81
2022-10-19T12:34:50.867Z,19.81
2022-10-19T12:37:21.713Z,19.82
2022-10-19T12:39:51.511Z,19.83
2022-10-19T12:42:23.285Z,19.83
2022-10-19T12:45:03.517Z,19.84
2022-10-19T12:47:31.181Z,19.85
2022-10-19T12:49:58.953Z,19.82
2022-10-19T12:52:40.936Z,19.80
2022-10-19T12:55:13.494Z,19.82
2022-10-19T12:57:43.509Z,19.83
2022-10-19T13:00:20.478Z,19.84
2022-10-19T13:02:48.638Z,19.84
2022-10-19T13:05:21.240Z,19.84
2022-10-19T13:07:49.264Z,19.84
2022-10-19T13:10:20.332Z,19.85
2022-10-19T13:12:49.288Z,19.85
2022-10-19T13:15:56.313Z,19.85
2022-10-19T13:19:09.544Z,19.85
2022-10-19T13:22:24.325Z,19.85
2022-10-19T13:25:23.431Z,19.85
2022-10-19T13:27:52.508Z,19.84
2022-10-19T13:31:03.388Z,19.85
2022-10-19T13:33:48.200Z,19.83
2022-10-19T13:36:16.332Z,19.84
2022-10-19T13:38:44.623Z,19.85
2022-10-19T13:41:14.867Z,19.84
2022-10-19T13:44:04.130Z,19.84
2022-10-19T13:46:49.225Z,19.84
2022-10-19T13:49:41.297Z,19.85
2022-10-19T13:52:22.931Z,19.84
2022-10-19T13:55:01.392Z,19.84
2022-10-19T13:57:32.996Z,19.84
2022-10-19T14:00:07.180Z,19.84
2022-10-19T14:02:51.558Z,19.85
2022-10-19T14:05:28.691Z,19.83
2022-10-19T14:08:04.207Z,19.84
2022-10-19T14:10:33.148Z,19.83
2022-10-19T14:13:14.164Z,19.83
2022-10-19T14:15:51.394Z,19.82
2022-10-19T14:18:23.473Z,19.81
2022-10-19T14:20:57.323Z,19.82
2022-10-19T14:23:26.195Z,19.82
2022-10-19T14:25:54.842Z,19.82
2022-10-19T14:28:22.475Z,19.83
2022-10-19T14:30:58.909Z,19.82
2022-10-19T14:33:27.060Z,19.82
2022-10-19T14:35:54.684Z,19.82
2022-10-19T14:38:25.120Z,19.82
2022-10-19T14:40:53.058Z,19.82
2022-10-19T14:43:22.171Z,19.81
2022-10-19T14:46:10.361Z,19.81
2022-10-19T14:48:38.950Z,19.80
2022-10-19T14:51:09.569Z,19.78
2022-10-19T14:53:39.327Z,19.79
2022-10-19T14:56:08.849Z,19.79
2022-10-19T14:58:39.057Z,19.79
2022-10-19T15:01:08.029Z,19.77
2022-10-19T15:03:38.104Z,19.76
2022-10-19T15:06:08.961Z,19.75
2022-10-19T15:08:39.907Z,19.76
2022-10-19T15:11:07.506Z,19.76
2022-10-19T15:13:36.409Z,19.76
2022-10-19T15:16:04.002Z,19.75
2022-10-19T15:18:48.880Z,19.75
2022-10-19T15:21:19.454Z,19.75
2022-10-19T15:23:47.549Z,19.74
2022-10-19T15:26:17.678Z,19.74
2022-10-19T15:28:45.284Z,19.75
2022-10-19T15:31:17.900Z,19.74
2022-10-19T15:33:49.583Z,19.74
2022-10-19T15:36:18.354Z,19.75
2022-10-19T15:38:46.889Z,19.75
2022-10-19T15:41:18.908Z,19.74
2022-10-19T15:43:46.960Z,19.76
2022-10-19T15:46:30.875Z,19.73
2022-10-19T15:49:01.112Z,19.76
2022-10-19T15:51:39.460Z,19.77
2022-10-19T15:54:07.569Z,19.82
2022-10-19T15:56:35.864Z,19.89
2022-10-19T15:59:05.320Z,19.96
2022-10-19T16:01:33.288Z,20.05
2022-10-19T16:04:02.387Z,20.12
2022-10-19T16:06:31.848Z,20.19
2022-10-19T16:09:00.285Z,20.25
2022-10-19T16:11:28.854Z,20.30
2022-10-19T16:13:56.408Z,20.34
2022-10-19T16:16:25.357Z,20.41
2022-10-19T16:18:53.006Z,20.46
2022-10-19T16:21:23.494Z,20.49
2022-10-19T16:23:51.220Z,20.46
2022-10-19T16:26:18.822Z,20.43
2022-10-19T16:28:46.417Z,20.41
2022-10-19T16:31:13.961Z,20.40
2022-10-19T16:33:41.495Z,20.36
2022-10-19T16:36:09.756Z,20.34
2022-10-19T16:38:38.665Z,20.33
2022-10-19T16:41:07.074Z,20.29
2022-10-19T16:43:34.768Z,20.25
2022-10-19T16:46:02.420Z,20.23
2022-10-19T16:48:29.957Z,20.22
2022-10-19T16:51:26.542Z,20.20
2022-10-19T16:53:57.055Z,20.16
2022-10-19T16:56:24.941Z,20.13
2022-10-19T16:58:54.625Z,20.12
2022-10-19T17:01:22.201Z,20.11
2022-10-19T17:03:50.147Z,20.10
2022-10-19T17:06:18.084Z,20.09
2022-10-19T17:09:23.695Z,20.08
2022-10-19T17:11:35.365Z,20.10
2022-10-19T17:14:03.726Z,20.13
2022-10-19T17:16:32.418Z,20.19
2022-10-19T17:19:00.473Z,20.24
2022-10-19T17:21:29.054Z,20.35
2022-10-19T17:23:57.507Z,20.41
2022-10-19T17:26:28.353Z,20.47
2022-10-19T17:28:57.277Z,20.53
2022-10-19T17:31:24.843Z,20.59
2022-10-19T17:33:52.505Z,20.65
2022-10-19T17:36:21.048Z,20.71
2022-10-19T17:38:48.708Z,20.75
2022-10-19T17:41:17.018Z,20.79
2022-10-19T17:43:45.986Z,20.83
2022-10-19T17:46:16.070Z,20.87
2022-10-19T17:48:44.246Z,20.90
2022-10-19T17:51:12.893Z,20.93
2022-10-19T17:53:40.758Z,20.95
2022-10-19T17:56:08.945Z,20.98
2022-10-19T17:58:39.164Z,21.00
2022-10-19T18:01:07.667Z,21.02
2022-10-19T18:03:36.791Z,21.05
2022-10-19T18:06:08.184Z,21.07
2022-10-19T18:08:39.061Z,21.09
2022-10-19T18:11:07.539Z,21.12
2022-10-19T18:16:09.085Z,21.15
2022-10-19T18:18:39.353Z,21.17
2022-10-19T18:21:07.813Z,21.19
2022-10-19T18:23:36.281Z,21.19
2022-10-19T18:26:04.245Z,21.18
2022-10-19T18:28:31.945Z,21.20
2022-10-19T18:31:05.680Z,21.20
2022-10-19T18:33:33.393Z,21.21
2022-10-19T18:36:02.451Z,21.23
2022-10-19T18:38:30.008Z,21.24
2022-10-19T18:41:02.183Z,21.22
2022-10-19T18:43:29.817Z,21.22
2022-10-19T18:45:58.567Z,21.21
2022-10-19T18:48:27.057Z,21.22
2022-10-19T18:50:54.634Z,21.24
2022-10-19T18:53:23.538Z,21.25
2022-10-19T18:55:57.779Z,21.26
2022-10-19T18:58:25.497Z,21.27
2022-10-19T19:01:03.311Z,21.27
2022-10-19T19:03:30.872Z,21.29
2022-10-19T19:06:00.689Z,21.30
2022-10-19T19:08:29.864Z,21.30
2022-10-19T19:10:57.605Z,21.32
2022-10-19T19:13:25.116Z,21.34
2022-10-19T19:15:58.285Z,21.35
2022-10-19T19:18:25.879Z,21.36
2022-10-19T19:20:53.452Z,21.38
2022-10-19T19:23:21.057Z,21.40
2022-10-19T19:25:50.056Z,21.41
2022-10-19T19:28:17.664Z,21.42
2022-10-19T19:30:46.027Z,21.42
2022-10-19T19:33:13.604Z,21.41
2022-10-19T19:35:44.733Z,21.41
2022-10-19T19:38:12.277Z,21.46
2022-10-19T19:40:40.916Z,21.47
2022-10-19T19:43:09.920Z,21.44
2022-10-19T19:45:37.467Z,21.43
2022-10-19T19:48:05.064Z,21.43
2022-10-19T19:50:32.717Z,21.47
2022-10-19T19:53:00.422Z,21.42
2022-10-19T19:55:27.975Z,21.42
2022-10-19T19:57:55.732Z,21.46
2022-10-19T20:00:24.860Z,21.45
2022-10-19T20:02:52.933Z,21.42
2022-10-19T20:05:20.484Z,21.46
2022-10-19T20:07:48.125Z,21.44
2022-10-19T20:10:16.274Z,21.46
2022-10-19T20:12:43.827Z,21.41
2022-10-19T20:15:11.892Z,21.43
2022-10-19T20:17:40.871Z,21.42
2022-10-19T20:20:09.952Z,21.36
2022-10-19T20:22:37.545Z,21.31
2022-10-19T20:25:05.794Z,21.25
2022-10-19T20:27:35.478Z,21.20
2022-10-19T20:30:03.196Z,21.13
2022-10-19T20:32:30.767Z,21.08
2022-10-19T20:34:59.665Z,21.00
2022-10-19T20:37:27.313Z,20.94
2022-10-19T20:39:54.839Z,20.89
2022-10-19T20:42:22.477Z,20.84
2022-10-19T20:44:50.039Z,20.80
2022-10-19T20:47:17.578Z,20.75
2022-10-19T20:49:45.126Z,20.72
2022-10-19T20:52:14.004Z,20.68
2022-10-19T20:54:41.525Z,20.64
2022-10-19T20:57:09.032Z,20.59
2022-10-19T20:59:38.617Z,20.55
2022-10-19T21:02:06.209Z,20.54
2022-10-19T21:04:33.734Z,20.51
2022-10-19T21:07:01.256Z,20.49
2022-10-19T21:09:30.170Z,20.45
2022-10-19T21:11:57.740Z,20.43
2022-10-19T21:14:28.379Z,20.41
2022-10-19T21:16:57.416Z,20.37
2022-10-19T21:19:25.968Z,20.35
2022-10-19T21:21:55.272Z,20.34
2022-10-19T21:24:23.856Z,20.32
2022-10-19T21:26:52.950Z,20.29
2022-10-19T21:29:20.531Z,20.28
2022-10-19T21:31:49.279Z,20.25
2022-10-19T21:34:17.794Z,20.24
2022-10-19T21:36:45.315Z,20.23
2022-10-19T21:39:13.348Z,20.21
2022-10-19T21:41:40.889Z,20.20
2022-10-19T21:44:09.929Z,20.17
2022-10-19T21:46:37.499Z,20.16
2022-10-19T21:49:05.004Z,20.14
2022-10-19T21:51:35.157Z,20.15
2022-10-19T21:54:02.766Z,20.13
2022-10-19T21:56:30.315Z,20.12
2022-10-19T21:58:57.937Z,20.11
2022-10-19T22:01:28.422Z,20.11
2022-10-19T22:03:57.040Z,20.11
2022-10-19T22:06:24.721Z,20.09
2022-10-19T22:08:52.386Z,20.10
2022-10-19T22:11:20.080Z,20.09
2022-10-19T22:13:47.580Z,20.07
2022-10-19T22:16:16.332Z,20.06
2022-10-19T22:18:45.244Z,20.05
2022-10-19T22:21:13.732Z,20.04
2022-10-19T22:23:41.397Z,20.04
2022-10-19T22:26:15.324Z,20.01
2022-10-19T22:28:42.921Z,20.01
2022-10-19T22:31:10.881Z,20.01
2022-10-19T22:33:38.456Z,19.99
2022-10-19T22:36:08.283Z,20.00
2022-10-19T22:38:35.826Z,19.98
2022-10-19T22:41:03.405Z,19.98
2022-10-19T22:43:30.959Z,19.96
2022-10-19T22:45:58.997Z,19.96
2022-10-19T22:48:26.537Z,19.96
2022-10-19T22:50:54.131Z,19.96
2022-10-19T22:53:23.229Z,19.94
2022-10-19T22:55:50.784Z,19.94
2022-10-19T22:58:18.389Z,19.93
2022-10-19T23:00:45.935Z,19.92
2022-10-19T23:03:13.581Z,19.93
2022-10-19T23:05:41.096Z,19.92
2022-10-19T23:08:08.609Z,19.91
2022-10-19T23:10:37.542Z,19.91
2022-10-19T23:13:05.072Z,19.90
2022-10-19T23:15:32.600Z,19.88
2022-10-19T23:18:00.126Z,19.88
2022-10-19T23:20:27.649Z,19.88
2022-10-19T23:22:55.228Z,19.88
2022-10-19T23:25:22.883Z,19.86
2022-10-19T23:27:51.860Z,19.86
2022-10-19T23:30:19.380Z,19.86
2022-10-19T23:32:46.895Z,19.85
2022-10-19T23:35:14.596Z,19.85
2022-10-19T23:37:42.185Z,19.84
2022-10-19T23:40:10.476Z,19.85
2022-10-19T23:42:38.015Z,19.83
2022-10-19T23:45:08.136Z,19.82
2022-10-19T23:47:36.084Z,19.83
2022-10-19T23:50:04.048Z,19.82
2022-10-19T23:52:31.624Z,19.82
2022-10-19T23:54:59.254Z,19.82
2022-10-19T23:57:26.846Z,19.80
2022-10-19T23:59:54.450Z,19.80
